createdAt,value
2023-05-19T00:00:16.949Z,96927.06
2023-05-19T00:01:19.117Z,96922.13
2023-05-19T00:02:21.168Z,96914.00
2023-05-19T00:03:23.104Z,96916.78
2023-05-19T00:04:24.861Z,96917.56
2023-05-19T00:05:28.071Z,96912.19
2023-05-19T00:06:32.134Z,96919.22
2023-05-19T00:07:34.681Z,96910.72
2023-05-19T00:08:38.331Z,96914.41
2023-05-19T00:09:40.152Z,96910.75
2023-05-19T00:10:42.118Z,96917.88
2023-05-19T00:11:43.990Z,96917.22
2023-05-19T00:12:45.802Z,96916.59
2023-05-19T00:13:49.708Z,96913.31
2023-05-19T00:14:51.960Z,96911.19
2023-05-19T00:15:54.046Z,96921.13
2023-05-19T00:16:56.241Z,96911.47
2023-05-19T00:17:58.120Z,96912.44
2023-05-19T00:19:01.553Z,96913.44
2023-05-19T00:20:07.470Z,96912.44
2023-05-19T00:21:09.547Z,96914.16
2023-05-19T00:22:11.521Z,96911.97
2023-05-19T00:23:13.112Z,96913.38
2023-05-19T00:24:14.733Z,96909.19
2023-05-19T00:25:16.322Z,96909.72
2023-05-19T00:26:18.258Z,96914.84
2023-05-19T00:27:19.829Z,96910.50
2023-05-19T00:28:21.368Z,96911.69
2023-05-19T00:29:23.004Z,96913.16
2023-05-19T00:30:24.809Z,96907.41
2023-05-19T00:31:26.488Z,96906.28
2023-05-19T00:32:28.079Z,96920.19
2023-05-19T00:33:29.798Z,96911.69
2023-05-19T00:34:31.400Z,96915.72
2023-05-19T00:35:33.125Z,96921.28
2023-05-19T00:36:34.748Z,96920.63
2023-05-19T00:37:36.394Z,96920.63
2023-05-19T00:38:38.396Z,96916.81
2023-05-19T00:39:40.024Z,96916.53
2023-05-19T00:40:41.711Z,96910.63
2023-05-19T00:41:43.440Z,96915.03
2023-05-19T00:42:45.134Z,96913.63
2023-05-19T00:43:46.722Z,96909.63
2023-05-19T00:44:48.315Z,96912.59
2023-05-19T00:45:51.246Z,96908.78
2023-05-19T00:46:52.884Z,96913.47
2023-05-19T00:47:54.689Z,96905.09
2023-05-19T00:48:56.376Z,96906.66
2023-05-19T00:49:57.901Z,96905.22
2023-05-19T00:51:04.736Z,96901.28
2023-05-19T00:52:07.286Z,96907.38
2023-05-19T00:53:09.307Z,96906.94
2023-05-19T00:54:10.917Z,96909.22
2023-05-19T00:55:14.024Z,96905.88
2023-05-19T00:56:17.526Z,96905.72
2023-05-19T00:57:19.393Z,96897.75
2023-05-19T00:58:21.121Z,96906.72
2023-05-19T00:59:22.726Z,96900.19
2023-05-19T01:00:24.589Z,96908.81
2023-05-19T01:01:26.849Z,96908.78
2023-05-19T01:02:29.856Z,96900.91
2023-05-19T01:03:35.237Z,96904.66
2023-05-19T01:04:38.295Z,96907.41
2023-05-19T01:05:44.893Z,96903.59
2023-05-19T01:06:54.833Z,96906.56
2023-05-19T01:07:56.610Z,96896.78
2023-05-19T01:08:58.376Z,96902.53
2023-05-19T01:10:00.335Z,96899.50
2023-05-19T01:11:01.916Z,96900.47
2023-05-19T01:12:04.054Z,96900.34
2023-05-19T01:13:07.033Z,96900.34
2023-05-19T01:14:09.154Z,96894.59
2023-05-19T01:15:11.661Z,96896.78
2023-05-19T01:16:16.168Z,96896.94
2023-05-19T01:17:44.951Z,96894.19
2023-05-19T01:19:12.675Z,96897.63
2023-05-19T01:20:25.959Z,96896.84
2023-05-19T01:21:51.223Z,96897.78
2023-05-19T01:23:28.825Z,96899.25
2023-05-19T01:25:07.054Z,96890.19
2023-05-19T01:26:29.807Z,96897.47
2023-05-19T01:27:34.248Z,96883.72
2023-05-19T01:28:44.891Z,96883.00
2023-05-19T01:30:13.497Z,96891.19
2023-05-19T01:31:16.959Z,96894.00
2023-05-19T01:32:21.094Z,96888.72
2023-05-19T01:33:24.048Z,96890.00
2023-05-19T01:34:27.452Z,96890.84
2023-05-19T01:35:30.836Z,96892.84
2023-05-19T01:36:33.835Z,96895.97
2023-05-19T01:37:38.863Z,96897.09
2023-05-19T01:38:42.614Z,96895.22
2023-05-19T01:39:45.716Z,96892.13
2023-05-19T01:40:49.555Z,96887.47
2023-05-19T01:41:52.437Z,96891.28
2023-05-19T01:42:57.687Z,96884.97
2023-05-19T01:43:59.987Z,96884.88
2023-05-19T01:45:02.268Z,96886.09
2023-05-19T01:46:04.370Z,96884.25
2023-05-19T01:47:06.361Z,96880.50
2023-05-19T01:48:10.899Z,96883.19
2023-05-19T01:49:13.549Z,96880.56
2023-05-19T01:50:15.421Z,96885.28
2023-05-19T01:51:17.108Z,96879.88
2023-05-19T01:52:18.696Z,96879.38
2023-05-19T01:53:20.366Z,96880.56
2023-05-19T01:54:21.950Z,96877.47
2023-05-19T01:55:23.901Z,96879.53
2023-05-19T01:56:41.281Z,96884.72
2023-05-19T01:58:17.680Z,96882.44
2023-05-19T01:59:39.241Z,96889.56
2023-05-19T02:00:54.273Z,96882.03
2023-05-19T02:02:00.729Z,96882.19
2023-05-19T02:03:23.605Z,96885.03
2023-05-19T02:04:30.484Z,96878.50
2023-05-19T02:05:38.314Z,96884.44
2023-05-19T02:07:03.801Z,96883.63
2023-05-19T02:08:37.409Z,96879.50
2023-05-19T02:09:51.490Z,96878.06
2023-05-19T02:11:04.223Z,96878.78
2023-05-19T02:12:25.977Z,96875.13
2023-05-19T02:13:32.801Z,96877.28
2023-05-19T02:14:40.256Z,96883.19
2023-05-19T02:15:42.496Z,96881.78
2023-05-19T02:16:47.640Z,96888.81
2023-05-19T02:17:54.408Z,96890.41
2023-05-19T02:18:56.495Z,96888.38
2023-05-19T02:19:58.143Z,96889.88
2023-05-19T02:20:59.795Z,96894.22
2023-05-19T02:22:01.419Z,96887.44
2023-05-19T02:23:03.013Z,96892.53
2023-05-19T02:24:04.804Z,96892.69
2023-05-19T02:25:07.098Z,96885.03
2023-05-19T02:26:08.837Z,96886.59
2023-05-19T02:27:10.584Z,96891.53
2023-05-19T02:28:12.161Z,96894.25
2023-05-19T02:29:13.822Z,96894.69
2023-05-19T02:30:15.574Z,96900.59
2023-05-19T02:31:17.174Z,96901.00
2023-05-19T02:32:18.966Z,96902.22
2023-05-19T02:33:20.748Z,96899.50
2023-05-19T02:34:22.966Z,96902.06
2023-05-19T02:35:24.547Z,96898.00
2023-05-19T02:36:26.672Z,96902.47
2023-05-19T02:37:32.574Z,96898.47
2023-05-19T02:38:34.214Z,96896.84
2023-05-19T02:39:35.957Z,96899.25
2023-05-19T02:40:37.538Z,96901.59
2023-05-19T02:41:39.508Z,96900.13
2023-05-19T02:42:41.768Z,96900.75
2023-05-19T02:43:43.629Z,96902.00
2023-05-19T02:44:45.260Z,96901.06
2023-05-19T02:45:46.856Z,96906.13
2023-05-19T02:46:48.575Z,96894.22
2023-05-19T02:47:50.364Z,96897.50
2023-05-19T02:48:53.411Z,96889.88
2023-05-19T02:49:55.164Z,96901.31
2023-05-19T02:50:56.755Z,96903.34
2023-05-19T02:51:58.352Z,96894.03
2023-05-19T02:52:59.932Z,96898.31
2023-05-19T02:54:01.546Z,96896.91
2023-05-19T02:55:03.489Z,96900.53
2023-05-19T02:56:05.129Z,96896.72
2023-05-19T02:57:07.158Z,96902.09
2023-05-19T02:58:08.756Z,96902.91
2023-05-19T02:59:10.439Z,96904.47
2023-05-19T03:00:12.532Z,96902.91
2023-05-19T03:01:14.162Z,96902.56
2023-05-19T03:02:15.840Z,96898.56
2023-05-19T03:03:18.327Z,96897.88
2023-05-19T03:04:20.229Z,96901.06
2023-05-19T03:05:21.859Z,96895.06
2023-05-19T03:06:23.658Z,96900.66
2023-05-19T03:07:25.529Z,96903.84
2023-05-19T03:08:27.277Z,96907.06
2023-05-19T03:09:28.884Z,96904.88
2023-05-19T03:10:31.525Z,96915.41
2023-05-19T03:11:33.381Z,96911.09
2023-05-19T03:12:34.996Z,96914.72
2023-05-19T03:13:36.734Z,96916.97
2023-05-19T03:14:38.802Z,96913.59
2023-05-19T03:15:42.490Z,96906.81
2023-05-19T03:16:44.220Z,96906.63
2023-05-19T03:17:46.077Z,96912.47
2023-05-19T03:18:47.913Z,96915.78
2023-05-19T03:19:49.536Z,96910.28
2023-05-19T03:20:51.288Z,96909.31
2023-05-19T03:21:52.834Z,96910.88
2023-05-19T03:22:54.468Z,96913.13
2023-05-19T03:23:56.089Z,96915.41
2023-05-19T03:24:58.551Z,96911.56
2023-05-19T03:26:00.168Z,96915.16
2023-05-19T03:27:02.574Z,96918.59
2023-05-19T03:28:04.319Z,96915.31
2023-05-19T03:29:06.023Z,96916.88
2023-05-19T03:30:08.248Z,96921.53
2023-05-19T03:31:09.851Z,96918.94
2023-05-19T03:32:11.515Z,96911.91
2023-05-19T03:33:13.279Z,96910.56
2023-05-19T03:34:15.002Z,96913.25
2023-05-19T03:35:16.653Z,96912.56
2023-05-19T03:36:18.257Z,96911.50
2023-05-19T03:37:19.836Z,96914.84
2023-05-19T03:38:21.463Z,96915.16
2023-05-19T03:39:23.104Z,96918.69
2023-05-19T03:40:24.748Z,96916.88
2023-05-19T03:41:26.405Z,96917.03
2023-05-19T03:42:27.990Z,96922.81
2023-05-19T03:43:29.676Z,96927.00
2023-05-19T03:44:31.280Z,96921.09
2023-05-19T03:45:35.030Z,96927.13
2023-05-19T03:46:36.594Z,96933.13
2023-05-19T03:47:38.233Z,96929.50
2023-05-19T03:48:39.871Z,96934.19
2023-05-19T03:49:41.545Z,96934.38
2023-05-19T03:50:44.622Z,96931.84
2023-05-19T03:51:46.282Z,96936.88
2023-05-19T03:52:48.956Z,96925.31
2023-05-19T03:53:50.922Z,96929.56
2023-05-19T03:54:53.016Z,96930.44
2023-05-19T03:55:56.158Z,96930.88
2023-05-19T03:56:58.208Z,96925.81
2023-05-19T03:57:59.886Z,96930.00
2023-05-19T03:59:01.568Z,96925.03
2023-05-19T04:00:05.733Z,96921.41
2023-05-19T04:01:07.293Z,96922.34
2023-05-19T04:02:08.894Z,96926.72
2023-05-19T04:03:10.798Z,96924.38
2023-05-19T04:04:12.526Z,96936.44
2023-05-19T04:05:14.863Z,96941.66
2023-05-19T04:06:17.635Z,96941.47
2023-05-19T04:07:19.391Z,96936.97
2023-05-19T04:08:21.049Z,96939.81
2023-05-19T04:09:24.167Z,96934.97
2023-05-19T04:10:26.052Z,96929.50
2023-05-19T04:11:27.697Z,96923.84
2023-05-19T04:12:29.259Z,96938.78
2023-05-19T04:13:33.359Z,96927.31
2023-05-19T04:14:34.926Z,96924.56
2023-05-19T04:15:36.504Z,96931.00
2023-05-19T04:16:38.131Z,96934.53
2023-05-19T04:17:40.004Z,96927.94
2023-05-19T04:18:42.400Z,96935.31
2023-05-19T04:19:44.105Z,96923.13
2023-05-19T04:20:45.743Z,96930.00
2023-05-19T04:21:47.396Z,96936.34
2023-05-19T04:22:48.999Z,96928.44
2023-05-19T04:23:50.551Z,96931.47
2023-05-19T04:24:53.067Z,96935.47
2023-05-19T04:25:55.169Z,96930.84
2023-05-19T04:26:56.842Z,96936.47
2023-05-19T04:27:58.867Z,96937.38
2023-05-19T04:29:04.153Z,96936.84
2023-05-19T04:30:06.930Z,96933.16
2023-05-19T04:31:12.889Z,96932.31
2023-05-19T04:32:17.641Z,96933.28
2023-05-19T04:33:20.161Z,96929.03
2023-05-19T04:34:21.870Z,96934.28
2023-05-19T04:35:23.823Z,96929.44
2023-05-19T04:36:25.525Z,96943.00
2023-05-19T04:37:27.235Z,96941.31
2023-05-19T04:38:30.205Z,96943.28
2023-05-19T04:39:31.743Z,96941.06
2023-05-19T04:40:33.493Z,96938.41
2023-05-19T04:41:35.267Z,96931.72
2023-05-19T04:42:36.813Z,96933.50
2023-05-19T04:43:44.541Z,96939.84
2023-05-19T04:44:49.316Z,96945.53
2023-05-19T04:45:51.524Z,96949.34
2023-05-19T04:46:54.564Z,96945.38
2023-05-19T04:47:58.275Z,96939.06
2023-05-19T04:49:01.368Z,96947.63
2023-05-19T04:50:04.187Z,96947.88
2023-05-19T04:51:07.567Z,96937.81
2023-05-19T04:52:10.898Z,96944.81
2023-05-19T04:53:12.547Z,96941.25
2023-05-19T04:54:14.140Z,96942.81
2023-05-19T04:55:15.944Z,96941.31
2023-05-19T04:56:17.536Z,96945.00
2023-05-19T04:57:19.187Z,96944.56
2023-05-19T04:58:22.510Z,96952.94
2023-05-19T04:59:24.154Z,96953.53
2023-05-19T05:00:26.058Z,96948.69
2023-05-19T05:01:28.053Z,96951.63
2023-05-19T05:02:29.720Z,96951.88
2023-05-19T05:03:33.317Z,96947.94
2023-05-19T05:04:36.056Z,96952.28
2023-05-19T05:05:37.677Z,96951.63
2023-05-19T05:06:40.591Z,96953.88
2023-05-19T05:07:43.093Z,96956.09
2023-05-19T05:08:44.671Z,96958.81
2023-05-19T05:09:46.244Z,96952.78
2023-05-19T05:10:48.066Z,96951.25
2023-05-19T05:11:50.040Z,96955.38
2023-05-19T05:12:51.965Z,96949.88
2023-05-19T05:13:53.882Z,96959.97
2023-05-19T05:14:55.660Z,96956.66
2023-05-19T05:15:57.651Z,96965.47
2023-05-19T05:16:59.588Z,96955.28
2023-05-19T05:18:01.622Z,96962.38
2023-05-19T05:19:03.890Z,96952.88
2023-05-19T05:20:06.980Z,96953.72
2023-05-19T05:21:09.169Z,96954.03
2023-05-19T05:22:11.084Z,96949.50
2023-05-19T05:23:16.708Z,96953.63
2023-05-19T05:24:18.631Z,96949.13
2023-05-19T05:25:20.848Z,96948.91
2023-05-19T05:26:23.393Z,96943.81
2023-05-19T05:27:24.984Z,96948.41
2023-05-19T05:28:26.612Z,96946.69
2023-05-19T05:29:28.242Z,96950.47
2023-05-19T05:30:29.808Z,96947.19
2023-05-19T05:31:31.685Z,96940.78
2023-05-19T05:32:33.410Z,96942.44
2023-05-19T05:33:35.117Z,96943.72
2023-05-19T05:34:38.166Z,96940.78
2023-05-19T05:35:39.811Z,96951.03
2023-05-19T05:36:41.425Z,96947.69
2023-05-19T05:37:43.048Z,96944.19
2023-05-19T05:38:44.905Z,96946.06
2023-05-19T05:39:46.509Z,96945.59
2023-05-19T05:40:48.117Z,96951.47
2023-05-19T05:41:49.751Z,96947.59
2023-05-19T05:42:51.427Z,96947.44
2023-05-19T05:43:53.008Z,96948.25
2023-05-19T05:44:54.712Z,96948.03
2023-05-19T05:45:57.294Z,96952.28
2023-05-19T05:46:59.219Z,96954.03
2023-05-19T05:48:01.222Z,96950.28
2023-05-19T05:49:03.209Z,96955.09
2023-05-19T05:50:06.237Z,96957.63
2023-05-19T05:51:08.261Z,96957.72
2023-05-19T05:52:12.458Z,96946.06
2023-05-19T05:53:21.750Z,96951.31
2023-05-19T05:54:24.984Z,96962.81
2023-05-19T05:55:26.989Z,96956.84
2023-05-19T05:56:28.974Z,96954.00
2023-05-19T05:57:30.991Z,96958.06
2023-05-19T05:58:36.296Z,96966.88
2023-05-19T05:59:38.921Z,96963.97
2023-05-19T06:00:43.561Z,96963.34
2023-05-19T06:01:45.165Z,96961.13
2023-05-19T06:02:49.399Z,96964.59
2023-05-19T06:03:51.397Z,96965.34
2023-05-19T06:04:54.179Z,96959.84
2023-05-19T06:05:55.925Z,96959.88
2023-05-19T06:07:01.207Z,96966.56
2023-05-19T06:08:03.261Z,96972.06
2023-05-19T06:09:05.505Z,96970.94
2023-05-19T06:10:08.768Z,96968.09
2023-05-19T06:11:10.448Z,96963.38
2023-05-19T06:12:12.110Z,96974.56
2023-05-19T06:13:13.738Z,96969.63
2023-05-19T06:14:15.543Z,96975.56
2023-05-19T06:15:17.257Z,96972.19
2023-05-19T06:16:18.925Z,96971.44
2023-05-19T06:17:20.538Z,96975.66
2023-05-19T06:18:22.353Z,96969.38
2023-05-19T06:19:25.565Z,96981.50
2023-05-19T06:20:27.396Z,96969.91
2023-05-19T06:21:29.088Z,96975.75
2023-05-19T06:22:30.875Z,96973.91
2023-05-19T06:23:32.565Z,96973.19
2023-05-19T06:24:34.165Z,96977.84
2023-05-19T06:25:35.907Z,96975.16
2023-05-19T06:26:37.813Z,96970.91
2023-05-19T06:27:39.489Z,96970.13
2023-05-19T06:28:41.114Z,96968.59
2023-05-19T06:29:42.679Z,96967.00
2023-05-19T06:30:44.318Z,96976.25
2023-05-19T06:31:46.565Z,96976.22
2023-05-19T06:32:48.260Z,96975.91
2023-05-19T06:33:49.866Z,96976.31
2023-05-19T06:34:54.341Z,96980.13
2023-05-19T06:35:56.228Z,96974.66
2023-05-19T06:36:57.836Z,96971.59
2023-05-19T06:37:59.381Z,96972.09
2023-05-19T06:39:02.596Z,96978.31
2023-05-19T06:40:05.693Z,96973.66
2023-05-19T06:41:07.265Z,96975.59
2023-05-19T06:42:08.867Z,96968.56
2023-05-19T06:43:10.530Z,96966.19
2023-05-19T06:44:12.140Z,96973.59
2023-05-19T06:45:13.848Z,96973.63
2023-05-19T06:46:17.760Z,96977.91
2023-05-19T06:47:19.724Z,96968.50
2023-05-19T06:48:21.351Z,96968.47
2023-05-19T06:49:23.032Z,96976.19
2023-05-19T06:50:25.484Z,96966.06
2023-05-19T06:51:27.291Z,96974.66
2023-05-19T06:52:28.955Z,96970.34
2023-05-19T06:53:31.112Z,96965.69
2023-05-19T06:54:32.780Z,96975.53
2023-05-19T06:55:43.941Z,96976.31
2023-05-19T06:56:52.330Z,96974.00
2023-05-19T06:57:53.920Z,96968.53
2023-05-19T06:58:55.549Z,96967.66
2023-05-19T06:59:57.176Z,96964.09
2023-05-19T07:00:58.736Z,96970.84
2023-05-19T07:02:02.415Z,96974.38
2023-05-19T07:03:04.318Z,96965.41
2023-05-19T07:04:06.254Z,96968.13
2023-05-19T07:05:08.303Z,96962.22
2023-05-19T07:06:09.987Z,96958.28
2023-05-19T07:07:11.583Z,96954.31
2023-05-19T07:08:13.191Z,96955.84
2023-05-19T07:09:14.757Z,96958.34
2023-05-19T07:10:17.010Z,96967.00
2023-05-19T07:11:18.580Z,96967.41
2023-05-19T07:12:20.119Z,96964.66
2023-05-19T07:13:22.105Z,96970.13
2023-05-19T07:14:23.716Z,96966.22
2023-05-19T07:15:25.693Z,96964.31
2023-05-19T07:16:27.337Z,96959.97
2023-05-19T07:17:28.932Z,96958.34
2023-05-19T07:18:33.372Z,96955.19
2023-05-19T07:19:34.985Z,96953.28
2023-05-19T07:20:36.570Z,96953.25
2023-05-19T07:21:38.224Z,96959.03
2023-05-19T07:22:40.193Z,96960.50
2023-05-19T07:23:41.922Z,96957.00
2023-05-19T07:24:43.460Z,96952.72
2023-05-19T07:25:45.051Z,96954.38
2023-05-19T07:26:46.773Z,96950.25
2023-05-19T07:27:48.314Z,96962.75
2023-05-19T07:28:50.013Z,96947.50
2023-05-19T07:29:51.626Z,96948.22
2023-05-19T07:30:53.224Z,96950.00
2023-05-19T07:31:57.949Z,96945.69
2023-05-19T07:32:59.728Z,96944.06
2023-05-19T07:34:01.479Z,96942.06
2023-05-19T07:35:03.278Z,96947.06
2023-05-19T07:36:05.056Z,96943.88
2023-05-19T07:37:06.650Z,96942.31
2023-05-19T07:38:08.242Z,96942.75
2023-05-19T07:39:10.466Z,96950.38
2023-05-19T07:40:12.304Z,96948.19
2023-05-19T07:41:13.955Z,96947.28
2023-05-19T07:42:15.554Z,96944.16
2023-05-19T07:43:17.297Z,96947.91
2023-05-19T07:44:19.279Z,96948.59
2023-05-19T07:45:20.845Z,96944.53
2023-05-19T07:46:22.546Z,96944.50
2023-05-19T07:47:24.220Z,96943.59
2023-05-19T07:48:25.997Z,96946.63
2023-05-19T07:49:27.602Z,96943.09
2023-05-19T07:50:29.223Z,96944.25
2023-05-19T07:51:31.801Z,96941.09
2023-05-19T07:52:33.474Z,96942.66
2023-05-19T07:53:35.102Z,96946.44
2023-05-19T07:54:36.755Z,96941.56
2023-05-19T07:55:38.361Z,96944.88
2023-05-19T07:56:40.080Z,96944.69
2023-05-19T07:57:41.678Z,96942.47
2023-05-19T07:58:43.337Z,96945.19
2023-05-19T07:59:45.523Z,96943.75
2023-05-19T08:00:47.113Z,96947.84
2023-05-19T08:01:49.217Z,96942.94
2023-05-19T08:02:51.349Z,96945.91
2023-05-19T08:03:53.247Z,96939.59
2023-05-19T08:04:55.057Z,96940.69
2023-05-19T08:05:56.832Z,96934.78
2023-05-19T08:06:58.600Z,96937.31
2023-05-19T08:08:00.169Z,96935.03
2023-05-19T08:09:01.957Z,96935.63
2023-05-19T08:10:04.199Z,96932.34
2023-05-19T08:11:06.653Z,96933.66
2023-05-19T08:12:08.352Z,96936.78
2023-05-19T08:13:09.937Z,96941.44
2023-05-19T08:14:11.491Z,96944.44
2023-05-19T08:15:13.139Z,96938.03
2023-05-19T08:16:16.223Z,96937.66
2023-05-19T08:17:17.936Z,96949.41
2023-05-19T08:18:20.174Z,96944.28
2023-05-19T08:19:21.862Z,96940.09
2023-05-19T08:20:24.448Z,96941.00
2023-05-19T08:21:26.058Z,96939.25
2023-05-19T08:22:28.123Z,96941.28
2023-05-19T08:23:29.851Z,96940.81
2023-05-19T08:24:32.915Z,96944.94
2023-05-19T08:25:40.981Z,96939.91
2023-05-19T08:26:44.429Z,96934.63
2023-05-19T08:27:46.138Z,96931.44
2023-05-19T08:28:47.810Z,96932.88
2023-05-19T08:29:49.522Z,96934.69
2023-05-19T08:31:00.076Z,96928.19
2023-05-19T08:32:02.814Z,96937.78
2023-05-19T08:33:04.489Z,96937.38
2023-05-19T08:34:06.198Z,96934.75
2023-05-19T08:35:08.498Z,96929.38
2023-05-19T08:36:16.257Z,96937.91
2023-05-19T08:37:17.843Z,96936.84
2023-05-19T08:38:19.432Z,96928.13
2023-05-19T08:39:26.574Z,96930.59
2023-05-19T08:40:31.530Z,96931.06
2023-05-19T08:44:36.525Z,96931.59
2023-05-19T08:45:43.133Z,96934.13
2023-05-19T08:46:44.998Z,96934.91
2023-05-19T08:47:47.463Z,96928.69
2023-05-19T08:48:54.279Z,96930.81
2023-05-19T08:51:42.849Z,96924.91
2023-05-19T08:53:31.929Z,96930.56
2023-05-19T08:54:46.033Z,96930.72
2023-05-19T08:55:53.367Z,96933.56
2023-05-19T08:56:55.619Z,96925.75
2023-05-19T08:57:57.390Z,96924.50
2023-05-19T08:59:00.491Z,96928.34
2023-05-19T09:00:09.183Z,96920.50
2023-05-19T09:01:14.503Z,96927.16
2023-05-19T09:02:16.726Z,96922.03
2023-05-19T09:04:28.400Z,96924.34
2023-05-19T09:05:32.614Z,96919.63
2023-05-19T09:06:34.913Z,96927.72
2023-05-19T09:07:37.951Z,96927.59
2023-05-19T09:08:41.020Z,96929.13
2023-05-19T09:09:44.119Z,96920.06
2023-05-19T09:10:45.815Z,96924.31
2023-05-19T09:11:47.493Z,96921.97
2023-05-19T09:12:49.899Z,96918.78
2023-05-19T09:13:51.991Z,96919.50
2023-05-19T09:14:53.947Z,96925.63
2023-05-19T09:15:57.476Z,96918.56
2023-05-19T09:16:59.204Z,96919.44
2023-05-19T09:18:14.199Z,96918.13
2023-05-19T09:19:16.104Z,96917.94
2023-05-19T09:20:17.759Z,96917.47
2023-05-19T09:21:19.430Z,96914.78
2023-05-19T09:22:21.219Z,96915.31
2023-05-19T09:23:24.979Z,96913.63
2023-05-19T09:24:27.626Z,96911.28
2023-05-19T09:25:29.256Z,96903.53
2023-05-19T09:26:43.093Z,96903.00
2023-05-19T09:27:46.927Z,96905.06
2023-05-19T09:28:48.677Z,96902.50
2023-05-19T09:29:51.007Z,96905.94
2023-05-19T09:31:09.309Z,96908.69
2023-05-19T09:32:11.106Z,96902.22
2023-05-19T09:33:19.499Z,96898.25
2023-05-19T09:34:22.471Z,96900.38
2023-05-19T09:35:24.091Z,96897.13
2023-05-19T09:36:25.801Z,96905.34
2023-05-19T09:37:28.016Z,96905.97
2023-05-19T09:38:29.793Z,96905.97
2023-05-19T09:39:32.845Z,96906.34
2023-05-19T09:40:34.538Z,96898.59
2023-05-19T09:41:36.220Z,96901.50
2023-05-19T09:42:39.112Z,96900.84
2023-05-19T09:43:40.698Z,96898.44
2023-05-19T09:44:42.621Z,96889.56
2023-05-19T09:45:44.442Z,96889.72
2023-05-19T09:46:53.279Z,96892.16
2023-05-19T09:47:54.906Z,96893.09
2023-05-19T09:48:59.618Z,96891.69
2023-05-19T09:50:01.206Z,96894.75
2023-05-19T09:51:07.938Z,96893.09
2023-05-19T09:52:11.184Z,96887.53
2023-05-19T09:53:17.469Z,96890.75
2023-05-19T09:54:20.553Z,96893.66
2023-05-19T09:55:26.978Z,96889.41
2023-05-19T09:56:34.515Z,96893.19
2023-05-19T09:57:37.306Z,96893.41
2023-05-19T09:58:42.318Z,96892.22
2023-05-19T09:59:44.744Z,96890.75
2023-05-19T10:00:47.852Z,96894.13
2023-05-19T10:01:49.682Z,96893.63
2023-05-19T10:02:51.738Z,96891.53
2023-05-19T10:03:53.765Z,96889.19
2023-05-19T10:04:55.937Z,96889.59
2023-05-19T10:05:57.766Z,96896.41
2023-05-19T10:07:00.213Z,96898.50
2023-05-19T10:08:03.172Z,96888.13
2023-05-19T10:09:05.584Z,96891.78
2023-05-19T10:10:09.794Z,96884.50
2023-05-19T10:11:12.251Z,96894.50
2023-05-19T10:12:13.933Z,96887.13
2023-05-19T10:13:16.749Z,96896.38
2023-05-19T10:14:19.266Z,96878.94
2023-05-19T10:15:23.194Z,96885.31
2023-05-19T10:16:26.768Z,96884.66
2023-05-19T10:17:29.058Z,96884.41
2023-05-19T10:18:32.727Z,96885.97
2023-05-19T10:19:36.494Z,96878.13
2023-05-19T10:20:40.175Z,96882.28
2023-05-19T10:21:41.760Z,96882.75
2023-05-19T10:22:47.119Z,96879.47
2023-05-19T10:23:48.752Z,96872.16
2023-05-19T10:24:50.424Z,96876.94
2023-05-19T10:25:57.304Z,96877.06
2023-05-19T10:27:05.558Z,96875.56
2023-05-19T10:28:11.622Z,96875.00
2023-05-19T10:29:17.656Z,96875.66
2023-05-19T10:30:26.462Z,96865.25
2023-05-19T10:31:28.652Z,96875.00
2023-05-19T10:32:32.717Z,96870.91
2023-05-19T10:34:14.240Z,96870.44
2023-05-19T10:36:08.380Z,96867.13
2023-05-19T10:37:21.703Z,96868.63
2023-05-19T10:38:35.120Z,96870.19
2023-05-19T10:39:36.865Z,96869.41
2023-05-19T10:41:11.693Z,96860.78
2023-05-19T10:42:24.278Z,96863.09
2023-05-19T10:43:36.299Z,96864.66
2023-05-19T10:44:58.498Z,96862.41
2023-05-19T10:46:00.169Z,96868.81
2023-05-19T10:47:02.036Z,96866.91
2023-05-19T10:48:04.582Z,96866.59
2023-05-19T10:49:08.022Z,96868.94
2023-05-19T10:50:10.691Z,96867.31
2023-05-19T10:51:12.472Z,96872.69
2023-05-19T10:52:26.201Z,96871.53
2023-05-19T10:53:32.711Z,96880.06
2023-05-19T10:54:46.857Z,96874.16
2023-05-19T10:55:53.459Z,96874.09
2023-05-19T10:56:57.052Z,96872.50
2023-05-19T10:57:58.651Z,96874.88
2023-05-19T10:59:01.287Z,96872.25
2023-05-19T11:00:11.724Z,96867.97
2023-05-19T11:01:15.136Z,96864.97
2023-05-19T11:02:43.262Z,96859.38
2023-05-19T11:03:50.097Z,96867.97
2023-05-19T11:04:52.399Z,96861.19
2023-05-19T11:06:14.022Z,96859.25
2023-05-19T11:07:22.479Z,96854.56
2023-05-19T11:08:34.982Z,96856.78
2023-05-19T11:09:43.041Z,96848.84
2023-05-19T11:10:46.662Z,96857.59
2023-05-19T11:11:54.662Z,96850.88
2023-05-19T11:12:58.246Z,96855.53
2023-05-19T11:14:00.397Z,96855.53
2023-05-19T11:15:03.359Z,96855.53
2023-05-19T11:16:09.105Z,96850.78
2023-05-19T11:17:15.634Z,96852.22
2023-05-19T11:18:17.438Z,96855.31
2023-05-19T11:19:25.502Z,96859.94
2023-05-19T11:20:28.790Z,96852.97
2023-05-19T11:21:52.288Z,96854.72
2023-05-19T11:23:23.879Z,96861.06
2023-05-19T11:24:46.409Z,96860.91
2023-05-19T11:25:51.148Z,96859.25
2023-05-19T11:26:54.858Z,96855.41
2023-05-19T11:27:56.828Z,96849.84
2023-05-19T11:30:34.029Z,96854.00
2023-05-19T11:31:36.499Z,96852.88
2023-05-19T11:32:44.352Z,96855.59
2023-05-19T11:33:46.235Z,96847.13
2023-05-19T11:34:49.491Z,96845.88
2023-05-19T11:35:52.136Z,96842.28
2023-05-19T11:36:53.807Z,96846.88
2023-05-19T11:37:56.240Z,96849.00
2023-05-19T11:38:59.922Z,96846.06
2023-05-19T11:40:02.394Z,96837.75
2023-05-19T11:42:39.970Z,96834.88
2023-05-19T11:43:42.123Z,96832.38
2023-05-19T11:44:47.724Z,96833.00
2023-05-19T11:45:49.686Z,96829.22
2023-05-19T11:46:51.809Z,96822.44
2023-05-19T11:48:03.157Z,96826.94
2023-05-19T11:49:05.373Z,96829.50
2023-05-19T11:50:07.749Z,96825.59
2023-05-19T11:51:09.402Z,96824.59
2023-05-19T11:52:11.897Z,96824.03
2023-05-19T11:53:14.275Z,96814.28
2023-05-19T11:54:19.308Z,96827.31
2023-05-19T11:55:22.503Z,96820.69
2023-05-19T11:56:24.097Z,96824.56
2023-05-19T11:57:25.791Z,96822.91
2023-05-19T11:58:28.246Z,96822.94
2023-05-19T11:59:37.811Z,96815.94
2023-05-19T12:00:40.909Z,96817.19
2023-05-19T12:01:42.749Z,96818.53
2023-05-19T12:02:44.365Z,96811.38
2023-05-19T12:03:46.554Z,96818.41
2023-05-19T12:04:51.773Z,96815.09
2023-05-19T12:05:54.042Z,96810.59
2023-05-19T12:06:55.776Z,96813.81
2023-05-19T12:07:57.769Z,96814.66
2023-05-19T12:09:00.056Z,96817.16
2023-05-19T12:10:01.819Z,96803.94
2023-05-19T12:11:04.552Z,96814.06
2023-05-19T12:12:06.311Z,96813.22
2023-05-19T12:13:09.957Z,96806.84
2023-05-19T12:14:13.016Z,96806.16
2023-05-19T12:15:14.682Z,96803.81
2023-05-19T12:16:19.814Z,96804.72
2023-05-19T12:17:23.941Z,96800.78
2023-05-19T12:18:30.691Z,96797.66
2023-05-19T12:19:32.558Z,96797.66
2023-05-19T12:20:36.133Z,96802.97
2023-05-19T12:21:38.506Z,96793.56
2023-05-19T12:22:40.399Z,96802.16
2023-05-19T12:23:42.655Z,96797.38
2023-05-19T12:24:47.103Z,96800.59
2023-05-19T12:25:49.349Z,96793.69
2023-05-19T12:26:50.949Z,96791.44
2023-05-19T12:27:58.082Z,96790.59
2023-05-19T12:29:00.037Z,96791.19
2023-05-19T12:30:03.699Z,96787.50
2023-05-19T12:31:06.066Z,96790.28
2023-05-19T12:32:09.155Z,96783.56
2023-05-19T12:33:11.944Z,96787.78
2023-05-19T12:34:14.026Z,96786.69
2023-05-19T12:35:15.943Z,96788.28
2023-05-19T12:36:18.435Z,96789.88
2023-05-19T12:37:20.044Z,96788.34
2023-05-19T12:38:22.971Z,96788.34